Aviation Digital Data Service (ADDS)

Output produced by METARs form (1111 UTC 24 April 2017)
found at http://www.aviationweather.gov/adds/metars/
 
KUES 240858Z 2409/2506 VRB03KT P6SM SCT250 
     FM241800 15011KT P6SM FEW250
       
KUIN 240520Z 2406/2506 VRB03KT P6SM SKC 
     FM241500 16010KT P6SM FEW250
       
KUKI 240545Z 2406/2506 33010KT P6SM SCT050 BKN150 
     FM241200 33006KT 6SM -RA OVC050 
     FM241600 27010KT 5SM -RA BR OVC020 
     FM250000 29008KT P6SM SCT015 OVC050
       
KUNV 241001Z 2410/2506 VRB02KT P6SM SCT250 
     FM241800 10006KT P6SM VCSH OVC070
       
KUTS 240905Z 2409/2506 VRB03KT P6SM SKC 
     FM241800 19005KT P6SM SCT250 
     FM250500 19006KT P6SM FEW015